createdAt,value
2024-02-10T00:01:36.590Z,67.80
2024-02-10T00:04:07.858Z,59.20
2024-02-10T00:06:37.807Z,59.60
2024-02-10T00:09:08.149Z,63.20
2024-02-10T00:11:37.926Z,67.80
2024-02-10T00:14:12.901Z,72.80
2024-02-10T00:16:44.158Z,65.80
2024-02-10T00:19:13.189Z,68.50
2024-02-10T00:21:42.805Z,56.10
2024-02-10T00:24:12.982Z,57.30
2024-02-10T00:26:43.685Z,60.80
2024-02-10T00:29:13.984Z,60.40
2024-02-10T00:31:46.303Z,59.40
2024-02-10T00:34:15.319Z,61.60
2024-02-10T00:36:46.007Z,58.10
2024-02-10T00:39:14.752Z,53.80
2024-02-10T00:41:43.011Z,57.30
2024-02-10T00:44:13.343Z,55.10
2024-02-10T00:46:45.808Z,55.10
2024-02-10T00:49:17.203Z,49.70
2024-02-10T00:51:46.267Z,56.80
2024-02-10T00:56:44.116Z,55.80
2024-02-10T00:59:16.962Z,55.40
2024-02-10T01:01:45.849Z,52.80
2024-02-10T01:04:15.221Z,59.10
2024-02-10T01:06:49.860Z,57.30
2024-02-10T01:11:52.205Z,57.20
2024-02-10T01:14:31.006Z,53.50
2024-02-10T01:17:00.423Z,55.40
2024-02-10T01:19:33.609Z,51.30
2024-02-10T01:22:02.799Z,57.90
2024-02-10T01:24:31.962Z,57.40
2024-02-10T01:27:00.317Z,59.40
2024-02-10T01:29:32.197Z,59.70
2024-02-10T01:32:01.415Z,59.60
2024-02-10T01:34:29.992Z,61.20
2024-02-10T01:37:00.417Z,60.30
2024-02-10T01:39:29.273Z,63.30
2024-02-10T01:41:57.537Z,56.90
2024-02-10T01:44:28.859Z,47.80
2024-02-10T01:47:00.956Z,49.70
2024-02-10T01:49:30.203Z,49.50
2024-02-10T01:51:58.528Z,53.70
2024-02-10T01:54:27.067Z,57.60
2024-02-10T01:56:55.556Z,57.30
2024-02-10T01:59:25.636Z,55.40
2024-02-10T02:04:24.167Z,60.10
2024-02-10T02:06:55.748Z,57.90
2024-02-10T02:09:29.353Z,50.80
2024-02-10T02:11:57.807Z,59.60
2024-02-10T02:14:26.729Z,59.40
2024-02-10T02:16:57.241Z,54.00
2024-02-10T02:19:25.965Z,54.80
2024-02-10T02:21:54.538Z,52.80
2024-02-10T02:24:25.155Z,48.20
2024-02-10T02:26:56.209Z,56.60
2024-02-10T02:29:26.350Z,57.60
2024-02-10T02:31:55.369Z,56.20
2024-02-10T02:34:25.128Z,55.90
2024-02-10T02:36:54.421Z,59.00
2024-02-10T02:39:24.173Z,53.30
2024-02-10T02:41:53.289Z,50.90
2024-02-10T02:44:21.528Z,48.80
2024-02-10T02:46:50.459Z,45.40
2024-02-10T02:49:21.270Z,53.30
2024-02-10T02:51:56.172Z,58.30
2024-02-10T02:54:25.242Z,55.90
2024-02-10T02:56:57.367Z,51.50
2024-02-10T02:59:25.637Z,50.30
2024-02-10T03:01:55.346Z,44.30
2024-02-10T03:04:24.832Z,49.20
2024-02-10T03:06:56.312Z,48.70
2024-02-10T03:09:24.785Z,52.10
2024-02-10T03:11:53.432Z,47.80
2024-02-10T03:14:24.031Z,48.50
2024-02-10T03:16:53.227Z,48.10
2024-02-10T03:19:22.682Z,47.40
2024-02-10T03:21:51.582Z,51.50
2024-02-10T03:24:20.147Z,46.40
2024-02-10T03:26:49.024Z,52.20
2024-02-10T03:29:21.137Z,54.40
2024-02-10T03:31:51.984Z,53.30
2024-02-10T03:34:21.351Z,53.20
2024-02-10T03:36:51.415Z,50.00
2024-02-10T03:39:20.926Z,52.90
2024-02-10T03:41:51.549Z,48.90
2024-02-10T03:44:24.058Z,49.60
2024-02-10T03:46:57.954Z,50.00
2024-02-10T03:49:31.656Z,43.60
2024-02-10T03:52:00.271Z,47.90
2024-02-10T03:54:31.796Z,48.60
2024-02-10T03:57:06.137Z,48.90
2024-02-10T03:59:37.146Z,41.10
2024-02-10T04:02:07.255Z,43.60
2024-02-10T04:04:38.481Z,38.80
2024-02-10T04:07:07.097Z,40.80
2024-02-10T04:09:35.586Z,42.50
2024-02-10T04:12:05.258Z,43.80
2024-02-10T04:14:34.614Z,47.60
2024-02-10T04:17:03.128Z,50.60
2024-02-10T04:19:32.223Z,41.90
2024-02-10T04:22:04.101Z,46.30
2024-02-10T04:24:32.642Z,41.50
2024-02-10T04:27:02.822Z,32.90
2024-02-10T04:32:02.623Z,39.50
2024-02-10T04:34:32.697Z,39.50
2024-02-10T04:37:01.675Z,33.60
2024-02-10T04:39:32.911Z,35.90
2024-02-10T04:42:02.002Z,35.80
2024-02-10T04:44:31.243Z,35.90
2024-02-10T04:46:59.693Z,31.80
2024-02-10T04:49:28.102Z,34.10
2024-02-10T04:51:56.571Z,32.60
2024-02-10T04:54:24.824Z,33.80
2024-02-10T04:57:00.311Z,34.50
2024-02-10T04:59:30.010Z,34.80
2024-02-10T05:01:58.477Z,37.40
2024-02-10T05:04:27.068Z,37.80
2024-02-10T05:06:56.085Z,31.40
2024-02-10T05:09:26.745Z,33.70
2024-02-10T05:11:56.340Z,35.00
2024-02-10T05:14:24.701Z,34.30
2024-02-10T05:16:53.772Z,34.70
2024-02-10T05:19:26.201Z,40.90
2024-02-10T05:21:57.773Z,33.40
2024-02-10T05:24:26.438Z,32.40
2024-02-10T05:26:55.522Z,31.90
2024-02-10T05:29:31.384Z,34.30
2024-02-10T05:32:18.596Z,35.10
2024-02-10T05:37:18.774Z,34.50
2024-02-10T05:39:49.276Z,36.00
2024-02-10T05:42:17.862Z,29.40
2024-02-10T05:44:46.339Z,27.30
2024-02-10T05:47:16.131Z,29.30
2024-02-10T05:49:46.531Z,28.40
2024-02-10T05:52:15.296Z,30.40
2024-02-10T05:54:44.328Z,28.70
2024-02-10T05:57:16.469Z,27.10
2024-02-10T05:59:45.245Z,27.20
2024-02-10T06:02:14.793Z,25.70
2024-02-10T06:04:43.580Z,27.30
2024-02-10T06:07:18.213Z,28.90
2024-02-10T06:09:47.462Z,27.80
2024-02-10T06:12:15.856Z,27.80
2024-02-10T06:14:45.731Z,27.40
2024-02-10T06:17:14.786Z,24.80
2024-02-10T06:19:43.363Z,28.60
2024-02-10T06:22:11.802Z,27.80
2024-02-10T06:24:45.582Z,26.40
2024-02-10T06:27:13.868Z,26.10
2024-02-10T06:29:42.447Z,25.00
2024-02-10T06:32:11.902Z,26.90
2024-02-10T06:34:44.369Z,24.60
2024-02-10T06:37:12.979Z,22.80
2024-02-10T06:39:41.316Z,27.20
2024-02-10T06:42:10.370Z,24.40
2024-02-10T06:44:44.093Z,23.60
2024-02-10T06:47:13.521Z,25.80
2024-02-10T06:49:42.992Z,28.00
2024-02-10T06:52:11.762Z,23.60
2024-02-10T06:54:44.288Z,23.30
2024-02-10T06:57:13.274Z,27.20
2024-02-10T06:59:41.729Z,25.00
2024-02-10T07:02:15.744Z,20.50
2024-02-10T07:04:54.887Z,23.50
2024-02-10T07:07:28.938Z,24.50
2024-02-10T07:10:00.734Z,24.90
2024-02-10T07:12:29.512Z,26.20
2024-02-10T07:14:58.482Z,28.00
2024-02-10T07:17:27.546Z,23.90
2024-02-10T07:20:01.566Z,23.00
2024-02-10T07:22:35.979Z,20.70
2024-02-10T07:25:09.125Z,22.80
2024-02-10T07:27:38.379Z,23.90
2024-02-10T07:30:08.156Z,23.10
2024-02-10T07:35:07.361Z,22.00
2024-02-10T07:37:37.112Z,23.20
2024-02-10T07:40:08.082Z,23.40
2024-02-10T07:42:36.451Z,23.00
2024-02-10T07:45:05.667Z,23.90
2024-02-10T07:47:35.453Z,22.00
2024-02-10T07:52:34.784Z,24.30
2024-02-10T07:55:04.212Z,29.10
2024-02-10T07:57:34.206Z,24.50
2024-02-10T08:00:04.935Z,23.10
2024-02-10T08:02:34.214Z,25.30
2024-02-10T08:05:06.031Z,24.20
2024-02-10T08:07:34.977Z,27.60
2024-02-10T08:10:08.435Z,24.30
2024-02-10T08:12:37.283Z,26.60
2024-02-10T08:15:11.706Z,24.20
2024-02-10T08:17:42.391Z,25.90
2024-02-10T08:20:15.275Z,25.90
2024-02-10T08:22:49.152Z,24.50
2024-02-10T08:25:26.506Z,25.80
2024-02-10T08:27:58.265Z,27.80
2024-02-10T08:30:26.896Z,24.60
2024-02-10T08:32:58.340Z,24.80
2024-02-10T08:35:38.718Z,23.50
2024-02-10T08:38:09.314Z,20.40
2024-02-10T08:43:21.048Z,25.60
2024-02-10T08:45:50.769Z,25.80
2024-02-10T08:48:29.183Z,25.40
2024-02-10T08:51:02.150Z,25.20
2024-02-10T08:53:34.266Z,24.70
2024-02-10T08:56:14.645Z,23.90
2024-02-10T08:58:45.541Z,26.00
2024-02-10T09:01:17.540Z,27.50
2024-02-10T09:03:55.381Z,24.90
2024-02-10T09:06:27.108Z,23.10
2024-02-10T09:09:00.242Z,25.30
2024-02-10T09:11:32.008Z,26.70
2024-02-10T09:14:04.357Z,26.20
2024-02-10T09:16:33.535Z,27.60
2024-02-10T09:19:06.380Z,26.10
2024-02-10T09:22:01.781Z,28.10
2024-02-10T09:24:30.272Z,26.30
2024-02-10T09:27:01.093Z,24.60
2024-02-10T09:29:30.671Z,26.60
2024-02-10T09:32:02.452Z,28.80
2024-02-10T09:34:31.252Z,26.80
2024-02-10T09:37:04.658Z,28.40
2024-02-10T09:39:34.784Z,28.80
2024-02-10T09:42:11.699Z,30.50
2024-02-10T09:44:40.911Z,28.00
2024-02-10T09:47:11.970Z,27.30
2024-02-10T09:49:43.612Z,27.10
2024-02-10T09:52:12.001Z,26.80
2024-02-10T09:54:42.772Z,24.80
2024-02-10T09:57:24.334Z,25.50
2024-02-10T09:59:53.245Z,25.10
2024-02-10T10:02:25.547Z,24.90
2024-02-10T10:04:54.215Z,24.40
2024-02-10T10:07:29.476Z,25.30
2024-02-10T10:09:59.723Z,23.70
2024-02-10T10:12:32.044Z,24.60
2024-02-10T10:15:23.429Z,21.60
2024-02-10T10:17:54.252Z,22.70
2024-02-10T10:20:30.061Z,23.10
2024-02-10T10:23:01.530Z,25.50
2024-02-10T10:25:30.311Z,24.10
2024-02-10T10:27:59.971Z,23.80
2024-02-10T10:30:36.682Z,22.40
2024-02-10T10:33:36.772Z,22.80
2024-02-10T10:36:30.395Z,24.10
2024-02-10T10:39:02.604Z,22.60
2024-02-10T10:41:34.892Z,21.70
2024-02-10T10:44:05.832Z,22.70
2024-02-10T10:46:55.491Z,25.10
2024-02-10T10:49:34.378Z,25.50
2024-02-10T10:54:52.636Z,23.40
2024-02-10T10:57:27.734Z,23.20
2024-02-10T11:00:02.906Z,19.90
2024-02-10T11:02:44.169Z,21.10
2024-02-10T11:05:19.886Z,25.60
2024-02-10T11:07:52.258Z,21.10
2024-02-10T11:10:42.230Z,20.00
2024-02-10T11:13:23.810Z,22.50
2024-02-10T11:16:17.202Z,23.20
2024-02-10T11:18:59.816Z,24.60
2024-02-10T11:21:31.681Z,21.80
2024-02-10T11:24:03.826Z,21.40
2024-02-10T11:26:40.207Z,22.10
2024-02-10T11:29:10.977Z,20.80
2024-02-10T11:31:43.417Z,23.40
2024-02-10T11:34:19.571Z,19.00
2024-02-10T11:36:55.404Z,17.90
2024-02-10T11:39:28.852Z,17.20
2024-02-10T11:41:59.811Z,16.90
2024-02-10T11:44:31.218Z,13.90
2024-02-10T11:47:06.232Z,12.90
2024-02-10T11:49:39.794Z,15.50
2024-02-10T11:52:11.774Z,14.70
2024-02-10T11:54:46.863Z,13.10
2024-02-10T11:57:16.156Z,16.40
2024-02-10T11:59:48.582Z,14.00
2024-02-10T12:02:21.445Z,17.60
2024-02-10T12:04:50.230Z,17.60
2024-02-10T12:07:23.819Z,13.80
2024-02-10T12:09:54.701Z,13.40
2024-02-10T12:12:24.294Z,14.90
2024-02-10T12:14:52.763Z,14.90
2024-02-10T12:17:21.494Z,16.30
2024-02-10T12:19:54.250Z,13.60
2024-02-10T12:22:28.866Z,13.40
2024-02-10T12:25:00.327Z,13.80
2024-02-10T12:27:33.164Z,14.50
2024-02-10T12:30:04.109Z,9.30
2024-02-10T12:32:36.044Z,6.20
2024-02-10T12:35:09.079Z,6.60
2024-02-10T12:37:40.047Z,6.60
2024-02-10T12:40:12.140Z,6.70
2024-02-10T12:42:43.603Z,7.30
2024-02-10T12:45:14.866Z,6.10
2024-02-10T12:47:56.500Z,5.00
2024-02-10T12:50:26.113Z,7.60
2024-02-10T12:52:55.980Z,5.80
2024-02-10T12:55:24.535Z,5.20
2024-02-10T12:57:54.093Z,4.50
2024-02-10T13:00:37.767Z,5.70
2024-02-10T13:03:07.852Z,6.40
2024-02-10T13:05:41.317Z,6.70
2024-02-10T13:08:11.952Z,12.70
2024-02-10T13:10:42.462Z,16.10
2024-02-10T13:13:12.863Z,14.10
2024-02-10T13:15:45.021Z,6.70
2024-02-10T13:18:26.668Z,5.70
2024-02-10T13:21:00.994Z,6.40
2024-02-10T13:23:29.336Z,6.30
2024-02-10T13:25:59.961Z,7.00
2024-02-10T13:28:28.490Z,8.10
2024-02-10T13:30:57.383Z,8.30
2024-02-10T13:33:26.125Z,4.90
2024-02-10T13:35:57.410Z,6.50
2024-02-10T13:38:44.486Z,9.50
2024-02-10T13:41:39.901Z,5.70
2024-02-10T13:44:29.575Z,6.70
2024-02-10T13:47:16.385Z,6.60
2024-02-10T13:50:08.410Z,6.00
2024-02-10T13:52:55.620Z,6.80
2024-02-10T13:55:42.549Z,6.50
2024-02-10T13:58:10.956Z,8.90
2024-02-10T14:01:18.373Z,9.20
2024-02-10T14:04:12.033Z,6.50
2024-02-10T14:06:45.483Z,7.40
2024-02-10T14:09:16.759Z,5.30
2024-02-10T14:11:57.228Z,6.40
2024-02-10T14:14:25.539Z,7.20
2024-02-10T14:17:10.918Z,6.20
2024-02-10T14:19:49.644Z,7.70
2024-02-10T14:22:21.061Z,10.60
2024-02-10T14:24:49.237Z,5.70
2024-02-10T14:27:24.037Z,7.60
2024-02-10T14:29:55.648Z,9.70
2024-02-10T14:32:33.765Z,9.40
2024-02-10T14:35:25.494Z,8.50
2024-02-10T14:38:09.543Z,7.00
2024-02-10T14:40:44.659Z,8.20
2024-02-10T14:43:18.071Z,7.70
2024-02-10T14:45:51.040Z,8.80
2024-02-10T14:48:24.638Z,10.70
2024-02-10T14:50:53.956Z,9.20
2024-02-10T14:56:23.773Z,12.20
2024-02-10T14:58:55.293Z,11.80
2024-02-10T15:01:32.208Z,10.50
2024-02-10T15:04:04.309Z,13.80
2024-02-10T15:06:35.541Z,14.50
2024-02-10T15:09:04.292Z,13.50
2024-02-10T15:11:38.507Z,13.20
2024-02-10T15:14:07.106Z,13.20
2024-02-10T15:16:35.580Z,11.20
2024-02-10T15:19:03.733Z,13.80
2024-02-10T15:21:35.732Z,27.60
2024-02-10T15:24:08.452Z,14.40
2024-02-10T15:26:38.067Z,8.40
2024-02-10T15:29:08.031Z,10.60
2024-02-10T15:31:36.490Z,10.00
2024-02-10T15:34:07.290Z,12.80
2024-02-10T15:36:40.313Z,9.40
2024-02-10T15:39:11.547Z,13.40
2024-02-10T15:41:42.374Z,11.60
2024-02-10T15:44:13.619Z,6.60
2024-02-10T15:46:48.232Z,9.80
2024-02-10T15:49:21.373Z,10.00
2024-02-10T15:51:55.772Z,13.30
2024-02-10T15:54:24.227Z,9.90
2024-02-10T15:57:01.234Z,10.60
2024-02-10T15:59:34.308Z,9.00
2024-02-10T16:02:10.832Z,10.60
2024-02-10T16:04:43.493Z,8.50
2024-02-10T16:07:13.928Z,7.00
2024-02-10T16:09:44.849Z,8.00
2024-02-10T16:12:15.672Z,9.60
2024-02-10T16:14:48.855Z,9.50
2024-02-10T16:17:18.368Z,9.00
2024-02-10T16:22:28.103Z,7.40
2024-02-10T16:24:56.399Z,11.10
2024-02-10T16:27:24.623Z,9.50
2024-02-10T16:29:52.885Z,11.20
2024-02-10T16:32:21.541Z,13.10
2024-02-10T16:34:54.209Z,11.20
2024-02-10T16:37:22.591Z,12.90
2024-02-10T16:39:53.414Z,11.50
2024-02-10T16:42:30.893Z,10.40
2024-02-10T16:44:59.744Z,12.40
2024-02-10T16:47:33.193Z,11.90
2024-02-10T17:30:01.800Z,17.00
2024-02-10T17:34:41.307Z,16.20
2024-02-10T17:47:55.216Z,14.30
2024-02-10T17:52:38.949Z,14.90
2024-02-10T17:57:33.719Z,12.50
2024-02-10T18:06:46.862Z,16.10
2024-02-10T18:11:50.569Z,20.00
2024-02-10T18:25:17.799Z,16.40
2024-02-10T18:30:03.015Z,17.30
2024-02-10T18:44:10.974Z,24.80
2024-02-10T18:52:08.584Z,25.40
2024-02-10T18:54:42.029Z,27.20
2024-02-10T18:57:14.437Z,26.50
2024-02-10T18:59:46.167Z,26.60
2024-02-10T19:02:18.551Z,23.30
2024-02-10T19:04:49.714Z,23.50
2024-02-10T19:07:22.790Z,21.10
2024-02-10T19:09:52.882Z,25.10
2024-02-10T19:12:24.868Z,26.00
2024-02-10T19:15:00.412Z,25.10
2024-02-10T19:17:39.243Z,23.30
2024-02-10T19:20:12.590Z,28.10
2024-02-10T19:22:43.348Z,29.10
2024-02-10T19:25:17.730Z,24.10
2024-02-10T19:27:48.822Z,28.00
2024-02-10T19:30:17.275Z,22.60
2024-02-10T19:32:46.881Z,24.10
2024-02-10T19:35:21.720Z,26.30
2024-02-10T19:38:26.332Z,20.50
2024-02-10T19:40:59.711Z,26.50
2024-02-10T19:43:32.062Z,21.20
2024-02-10T19:46:00.689Z,24.70
2024-02-10T19:48:32.784Z,20.20
2024-02-10T19:51:04.581Z,21.60
2024-02-10T19:53:32.944Z,25.00
2024-02-10T19:56:01.471Z,28.80
2024-02-10T19:58:38.035Z,29.00
2024-02-10T20:01:15.666Z,27.20
2024-02-10T20:03:46.346Z,26.40
2024-02-10T20:06:15.593Z,29.20
2024-02-10T20:08:54.051Z,26.30
2024-02-10T20:11:23.135Z,25.10
2024-02-10T20:14:02.757Z,24.30
2024-02-10T20:16:33.332Z,22.70
2024-02-10T20:21:39.829Z,27.40
2024-02-10T20:24:10.836Z,27.80
2024-02-10T20:26:40.893Z,26.60
2024-02-10T20:29:13.925Z,37.00
2024-02-10T20:31:48.419Z,31.90
2024-02-10T20:34:16.810Z,21.60
2024-02-10T20:36:47.709Z,29.70
2024-02-10T20:39:29.826Z,26.30
2024-02-10T20:42:01.021Z,24.40
2024-02-10T20:44:29.486Z,24.70
2024-02-10T20:46:57.875Z,25.30
2024-02-10T20:49:27.494Z,26.30
2024-02-10T20:51:56.504Z,25.50
2024-02-10T20:54:29.849Z,27.30
2024-02-10T20:57:02.781Z,22.20
2024-02-10T20:59:33.501Z,28.30
2024-02-10T21:02:01.791Z,27.80
2024-02-10T21:04:31.328Z,26.50
2024-02-10T21:06:59.785Z,27.40
2024-02-10T21:09:31.045Z,26.00
2024-02-10T21:12:05.887Z,21.00
2024-02-10T21:14:34.204Z,28.50
2024-02-10T21:17:02.718Z,25.80
2024-02-10T21:19:31.455Z,22.00
2024-02-10T21:22:04.453Z,26.20
2024-02-10T21:24:33.073Z,27.70
2024-02-10T21:27:01.306Z,26.70
2024-02-10T21:29:29.579Z,26.20
2024-02-10T21:32:08.107Z,21.50
2024-02-10T21:34:39.041Z,25.80
2024-02-10T21:37:10.273Z,24.60
2024-02-10T21:39:38.582Z,24.50
2024-02-10T21:42:06.799Z,19.30
2024-02-10T21:44:37.073Z,21.80
2024-02-10T21:47:07.603Z,17.50
2024-02-10T21:49:39.837Z,23.70
2024-02-10T21:52:11.529Z,26.80
2024-02-10T21:54:48.214Z,24.50
2024-02-10T21:57:19.449Z,23.60
2024-02-10T21:59:50.613Z,24.40
2024-02-10T22:02:22.431Z,23.30
2024-02-10T22:04:52.988Z,23.00
2024-02-10T22:07:23.704Z,19.10
2024-02-10T22:09:54.248Z,19.00
2024-02-10T22:12:27.146Z,20.70
2024-02-10T22:14:58.606Z,18.30
2024-02-10T22:17:29.933Z,18.30
2024-02-10T22:20:05.594Z,27.60
2024-02-10T22:22:36.239Z,20.00
2024-02-10T22:25:08.239Z,22.70
2024-02-10T22:27:37.169Z,20.50
2024-02-10T22:30:08.202Z,19.40
2024-02-10T22:32:39.429Z,23.30
2024-02-10T22:35:08.337Z,25.00
2024-02-10T22:37:39.175Z,23.10
2024-02-10T22:40:08.027Z,24.60
2024-02-10T22:42:39.813Z,22.20
2024-02-10T22:45:10.442Z,20.20
2024-02-10T22:47:41.462Z,19.00
2024-02-10T22:50:11.459Z,21.40
2024-02-10T22:52:40.066Z,19.20
2024-02-10T22:55:10.792Z,19.00
2024-02-10T22:57:39.259Z,19.10
2024-02-10T23:00:19.998Z,23.70
2024-02-10T23:02:56.982Z,23.20
2024-02-10T23:05:25.728Z,26.10
2024-02-10T23:07:55.244Z,24.30
2024-02-10T23:10:23.396Z,25.00
2024-02-10T23:13:07.856Z,25.60
2024-02-10T23:15:41.971Z,22.30
2024-02-10T23:18:14.493Z,20.50
2024-02-10T23:20:48.942Z,23.30
2024-02-10T23:23:20.106Z,22.70
2024-02-10T23:25:50.757Z,23.70
2024-02-10T23:28:19.755Z,25.20
2024-02-10T23:30:53.079Z,25.20
2024-02-10T23:33:27.708Z,25.50
2024-02-10T23:35:57.644Z,26.80
2024-02-10T23:38:28.426Z,26.20
2024-02-10T23:41:00.009Z,24.60
2024-02-10T23:43:31.073Z,23.00
2024-02-10T23:46:00.318Z,25.10
2024-02-10T23:48:28.790Z,26.90
2024-02-10T23:50:57.999Z,29.80
2024-02-10T23:53:26.199Z,26.90
2024-02-10T23:55:57.858Z,32.20
2024-02-10T23:58:26.211Z,26.90
